MDT,Max TemperatureF,Mean TemperatureF,Min TemperatureF,Max Dew PointF,MeanDew PointF,Min DewpointF,Max Humidity, Mean Humidity, Min Humidity, Max Sea Level PressureIn, Mean Sea Level PressureIn, Min Sea Level PressureIn, Max VisibilityMiles, Mean VisibilityMiles, Min VisibilityMiles, Max Wind SpeedMPH, Mean Wind SpeedMPH, Max Gust SpeedMPH,PrecipitationIn, CloudCover, Events, WindDirDegrees
2012-3-1,36,26,15,27,20,12,88,70,52,29.72,29.62,29.50,10,9,1,31,18,39,T,4,Snow,271
2012-3-2,25,18,11,18,15,8,84,79,74,30.01,29.83,29.64,10,6,2,32,21,39,T,8,Snow,296
2012-3-3,34,19,4,30,21,1,100,80,59,29.99,29.83,29.64,10,7,1,15,6,17,0.03,6,Snow,241
2012-3-4,36,30,23,32,27,22,96,80,64,30.08,29.93,29.66,10,10,4,28,15,37,0.01,6,Snow,295
2012-3-5,59,45,30,35,30,25,82,61,39,29.85,29.68,29.48,10,10,10,23,12,28,0.00,1,,222
2012-3-6,50,39,27,34,28,22,82,66,49,29.84,29.52,29.36,10,10,10,29,14,38,T,4,,301
2012-3-7,34,27,20,25,17,12,81,61,41,30.16,29.98,29.78,10,9,1,26,16,33,T,7,Snow,293
2012-3-8,49,35,20,22,19,17,88,60,31,30.42,30.29,30.18,10,10,10,32,14,40,0.00,0,,280
2012-3-9,68,46,24,27,21,16,88,51,14,30.33,30.04,29.83,10,10,10,26,13,31,0.00,0,,230
2012-3-10,71,53,34,21,20,15,52,32,12,29.85,29.76,29.66,10,10,10,16,10,21,0.00,0,,230
2012-3-11,72,49,26,30,27,23,78,49,20,29.64,29.53,29.42,10,10,10,18,6,25,0.00,0,,199
2012-3-12,57,42,27,30,21,13,65,42,18,29.83,29.68,29.41,10,10,10,35,15,40,T,0,,276
2012-3-13,75,53,30,29,24,20,63,39,14,29.81,29.58,29.39,10,10,10,36,15,46,0.00,0,,181
2012-3-14,53,38,23,24,12,4,63,39,14,29.96,29.89,29.66,10,10,10,23,8,31,0.00,1,,224
2012-3-15,71,52,33,31,24,14,52,35,18,30.00,29.90,29.78,10,10,10,23,13,26,0.00,0,,188
2012-3-16,78,59,40,34,30,26,70,43,15,29.73,29.57,29.47,10,10,10,18,10,23,0.00,0,,219
2012-3-17,71,53,34,38,35,31,89,58,26,29.68,29.56,29.40,10,10,10,23,12,30,0.00,0,,74
2012-3-18,79,61,43,47,32,23,71,42,13,29.37,29.27,29.08,10,10,10,35,11,44,0.00,0,,208
2012-3-19,68,48,27,49,26,8,75,44,12,29.67,29.32,29.08,10,10,10,37,21,45,0.00,1,,219
2012-3-20,60,42,23,24,18,10,92,54,16,29.91,29.81,29.68,10,10,10,28,14,36,0.00,0,,215
2012-3-21,70,51,32,23,21,18,59,38,16,29.94,29.89,29.82,10,10,10,21,8,28,0.00,0,,229
2012-3-22,73,56,38,48,27,17,93,54,15,29.97,29.90,29.82,10,10,10,21,12,27,0.00,0,,168
2012-3-23,72,57,41,52,48,41,100,72,44,29.92,29.85,29.76,10,5,0,20,10,25,0.00,2,Fog,163
2012-3-24,52,39,26,40,29,23,92,65,38,30.26,30.12,29.84,10,10,7,26,14,33,0.00,3,,339
2012-3-25,48,36,23,29,26,21,100,71,42,30.24,30.15,30.02,10,7,1,25,16,31,0.00,6,,101
2012-3-26,59,48,37,45,37,25,86,72,57,29.99,29.60,29.27,10,10,10,30,16,37,0.00,6,,136
2012-3-27,59,44,28,45,34,25,89,61,33,30.00,29.66,29.30,10,10,7,39,22,52,0.00,5,,301
2012-3-28,62,42,21,35,30,21,100,66,32,30.04,29.92,29.78,10,10,5,26,13,33,0.00,0,,126
2012-3-29,64,49,34,36,27,18,85,52,19,29.83,29.78,29.73,10,10,8,21,9,28,T,1,,283
2012-3-30,72,51,29,36,28,21,75,47,19,29.73,29.62,29.53,10,10,10,25,12,32,0.00,0,,206
2012-3-31,77,58,39,37,33,28,65,43,21,29.71,29.58,29.39,10,10,10,25,10,31,T,0,,209